Time;durP1;ratioP1;P1;durP2;ratioP2;P2;SDS_P1;SDS_P2;PMS_P1;PMS_P2;Temp;Humidity;BMP_temperature;BMP_pressure;BME280_temperature;BME280_humidity;BME280_pressure;Samples;Min_cycle;Max_cycle;Signal;HPM_P1;HPM_P2
2022/07/12 00:01:30;;;;;;;;;4.00;3.67;;;;;25.26;48.90;101420.34;4894326;29;45561;-84
2022/07/12 00:03:56;;;;;;;;;5.00;5.00;;;;;25.20;48.61;101399.63;4879408;29;44937;-85
2022/07/12 00:06:21;;;;;;;;;3.00;2.00;;;;;25.06;47.95;101380.22;4895176;28;44884;-84
2022/07/12 00:08:47;;;;;;;;;2.67;2.67;;;;;25.15;49.36;101409.81;4878424;28;47542;-84
2022/07/12 00:11:12;;;;;;;;;3.33;3.33;;;;;25.12;48.08;101409.91;4877564;28;44893;-84
2022/07/12 00:13:38;;;;;;;;;3.33;3.33;;;;;25.17;48.70;101421.56;4892417;29;44898;-84
2022/07/12 00:16:04;;;;;;;;;4.67;4.00;;;;;25.12;48.71;101415.38;4894265;28;44808;-85
2022/07/12 00:18:29;;;;;;;;;4.00;4.00;;;;;25.12;49.24;101413.53;4894099;29;45445;-85
2022/07/12 00:20:55;;;;;;;;;3.33;3.33;;;;;24.80;49.33;101368.41;4878345;29;45364;-84
2022/07/12 00:23:20;;;;;;;;;3.67;3.67;;;;;25.00;49.60;101413.09;4896058;29;44893;-85
2022/07/12 00:25:46;;;;;;;;;4.33;3.33;;;;;24.94;49.33;101415.09;4876886;29;45191;-84
2022/07/12 00:28:11;;;;;;;;;3.33;3.33;;;;;24.98;50.68;101421.28;4894090;29;45703;-85
2022/07/12 00:30:37;;;;;;;;;4.33;4.33;;;;;24.94;50.20;101416.91;4892291;29;45530;-84
2022/07/12 00:33:04;;;;;;;;;4.00;4.00;;;;;24.98;50.05;101424.00;4892591;29;45948;-83
2022/07/12 00:35:29;;;;;;;;;5.33;4.00;;;;;24.90;49.63;101407.94;4892463;28;45463;-85
2022/07/12 00:37:54;;;;;;;;;4.33;4.33;;;;;24.93;49.61;101417.88;4875278;29;46983;-84
2022/07/12 00:40:23;;;;;;;;;3.33;3.33;;;;;24.91;49.65;101420.63;4892148;29;45511;-85
2022/07/12 00:42:49;;;;;;;;;3.33;3.33;;;;;24.88;49.27;101412.56;4891856;29;44817;-85
2022/07/12 00:45:14;;;;;;;;;5.00;5.00;;;;;24.85;49.37;101404.53;4891689;29;45361;-85
2022/07/12 00:47:46;;;;;;;;;3.33;3.33;;;;;24.82;49.43;101406.44;4891251;29;45340;-85
2022/07/12 00:50:17;;;;;;;;;4.00;3.00;;;;;24.78;49.80;101397.50;4873863;28;45666;-86
2022/07/12 00:52:44;;;;;;;;;4.00;4.00;;;;;24.80;49.52;101406.50;4875280;28;45759;-84
2022/07/12 00:55:11;;;;;;;;;3.33;3.33;;;;;24.80;49.51;101414.66;4877564;28;44877;-84
2022/07/12 00:57:39;;;;;;;;;3.33;3.33;;;;;24.73;49.21;101399.50;4876780;28;47676;-85
2022/07/12 01:00:11;;;;;;;;;4.67;4.67;;;;;24.77;49.86;101400.31;4874646;29;45328;-84
2022/07/12 01:02:37;;;;;;;;;4.67;4.00;;;;;24.74;49.55;101409.44;4892183;29;45331;-85
2022/07/12 01:05:07;;;;;;;;;5.00;3.33;;;;;24.71;49.74;101390.50;4875299;29;45780;-83
2022/07/12 01:07:38;;;;;;;;;2.33;2.33;;;;;24.69;49.53;101400.56;4884097;29;47415;-84
2022/07/12 01:10:05;;;;;;;;;3.67;3.67;;;;;24.62;49.56;101390.81;4901662;28;45411;-85
2022/07/12 01:12:31;;;;;;;;;4.00;4.00;;;;;24.64;50.78;101405.25;4891695;29;45488;-86
2022/07/12 01:14:57;;;;;;;;;3.00;3.00;;;;;24.60;50.73;101407.19;4892757;29;45303;-85
2022/07/12 01:17:27;;;;;;;;;4.00;4.00;;;;;24.57;50.73;101409.13;4892457;29;45445;-85
2022/07/12 01:19:54;;;;;;;;;4.00;4.00;;;;;24.57;51.01;101411.84;4893501;29;45405;-85
2022/07/12 01:22:24;;;;;;;;;0.00;0.00;;;;;24.53;51.85;101420.09;4893546;29;44708;-84
2022/07/12 01:24:50;;;;;;;;;4.00;4.00;;;;;24.45;50.99;101399.53;4894535;29;45405;-85
2022/07/12 01:27:15;;;;;;;;;4.00;4.00;;;;;24.41;50.81;101396.00;4892575;29;46741;-85
2022/07/12 01:29:41;;;;;;;;;5.67;4.00;;;;;24.41;50.93;101395.13;4893275;28;45818;-85
2022/07/12 01:32:26;;;;;;;;;4.00;4.00;;;;;24.41;51.66;101392.41;4893130;29;45805;-85
2022/07/12 01:34:53;;;;;;;;;4.00;4.00;;;;;24.40;51.13;101391.53;4893238;29;45331;-85
2022/07/12 01:37:20;;;;;;;;;6.00;5.67;;;;;24.35;52.00;101385.34;4894009;28;45736;-85
2022/07/12 01:39:50;;;;;;;;;4.67;3.00;;;;;24.38;52.10;101387.06;4892750;29;46267;-85
2022/07/12 01:42:15;;;;;;;;;5.33;5.33;;;;;24.31;51.72;101383.66;4893280;28;45430;-85
2022/07/12 01:44:41;;;;;;;;;6.33;4.67;;;;;24.28;51.85;101387.38;4894482;29;45467;-84
2022/07/12 01:47:10;;;;;;;;;4.33;4.00;;;;;24.25;52.16;101373.00;4894642;29;46883;-85
2022/07/12 01:49:39;;;;;;;;;5.00;5.00;;;;;24.25;52.04;101387.47;4909914;28;45296;-83
2022/07/12 01:52:05;;;;;;;;;5.67;5.00;;;;;24.24;52.11;101391.13;4909133;29;45581;-85
2022/07/12 01:54:31;;;;;;;;;4.00;4.00;;;;;24.17;53.21;101392.25;4895080;29;45509;-85
2022/07/12 01:56:56;;;;;;;;;3.67;3.67;;;;;24.17;52.54;101398.56;4893408;29;47062;-85
2022/07/12 01:59:25;;;;;;;;;5.33;4.00;;;;;24.13;52.98;101386.03;4892809;29;45437;-85
2022/07/12 02:01:50;;;;;;;;;5.00;5.00;;;;;24.10;52.73;101380.72;4908332;28;44764;-85
2022/07/12 02:04:17;;;;;;;;;4.00;3.67;;;;;24.16;52.69;101393.22;4905755;28;45410;-85
2022/07/12 02:06:44;;;;;;;;;4.33;4.33;;;;;24.15;52.77;101403.16;4890725;29;45831;-86
2022/07/12 02:09:10;;;;;;;;;4.00;4.00;;;;;24.10;52.32;101388.84;4893303;29;45438;-85
2022/07/12 02:11:47;;;;;;;;;3.00;3.00;;;;;24.15;52.40;101391.41;4892906;29;45370;-85
2022/07/12 02:14:13;;;;;;;;;5.00;5.00;;;;;24.10;52.05;101391.56;4892423;29;45800;-85
2022/07/12 02:16:41;;;;;;;;;3.67;3.67;;;;;24.07;52.61;101378.06;4876626;29;46758;-85
2022/07/12 02:19:07;;;;;;;;;4.33;4.33;;;;;24.09;52.54;101378.03;4893231;29;46120;-85
2022/07/12 02:21:34;;;;;;;;;5.00;5.00;;;;;24.13;53.10;101390.56;4877701;29;45481;-85
2022/07/12 02:24:03;;;;;;;;;6.67;6.67;;;;;24.06;53.01;101391.72;4878872;29;44866;-85
2022/07/12 02:26:29;;;;;;;;;6.00;6.00;;;;;24.02;53.70;101384.63;4880662;29;46814;-86
2022/07/12 02:29:03;;;;;;;;;5.33;5.00;;;;;23.98;53.64;101391.09;4877381;29;45357;-84
2022/07/12 02:31:28;;;;;;;;;4.33;4.33;;;;;23.91;53.20;101395.81;4877975;29;45308;-85
2022/07/12 02:33:54;;;;;;;;;5.00;5.00;;;;;23.88;53.12;101391.34;4879424;29;45573;-84
2022/07/12 02:36:20;;;;;;;;;4.00;4.00;;;;;23.92;53.43;101397.59;4894948;28;45140;-85
2022/07/12 02:38:45;;;;;;;;;6.33;6.33;;;;;23.89;53.83;101390.41;4878051;29;45264;-86
2022/07/12 02:41:11;;;;;;;;;5.33;5.33;;;;;23.84;53.97;101383.38;4893246;29;45101;-85
2022/07/12 02:43:39;;;;;;;;;7.00;7.00;;;;;23.78;54.02;101380.84;4895046;28;45342;-85
2022/07/12 02:46:10;;;;;;;;;7.00;5.33;;;;;23.76;54.05;101384.44;4877782;29;47376;-85
2022/07/12 02:48:36;;;;;;;;;5.67;5.00;;;;;23.79;54.07;101398.91;4876438;29;45632;-85
2022/07/12 02:51:04;;;;;;;;;6.00;6.00;;;;;23.77;53.89;101407.09;4878259;29;45432;-85
2022/07/12 02:53:29;;;;;;;;;7.00;5.33;;;;;23.53;54.47;101370.66;4877806;28;45549;-85
2022/07/12 02:55:55;;;;;;;;;7.00;5.67;;;;;23.74;54.05;101410.75;4893418;29;45144;-84
2022/07/12 02:58:21;;;;;;;;;6.00;6.00;;;;;23.61;54.71;101389.44;4894084;29;45319;-85
2022/07/12 03:00:46;;;;;;;;;5.00;5.00;;;;;23.62;54.45;101394.84;4894036;29;45371;-85
2022/07/12 03:03:13;;;;;;;;;5.00;5.00;;;;;23.52;54.73;101382.47;4876000;29;45444;-85
2022/07/12 03:05:39;;;;;;;;;4.67;4.67;;;;;23.56;55.21;101398.63;4876347;29;47063;-85
2022/07/12 03:08:08;;;;;;;;;4.67;4.67;;;;;23.60;54.76;101409.41;4886762;29;45255;-85
2022/07/12 03:10:35;;;;;;;;;3.67;3.67;;;;;23.48;56.29;101391.63;4893879;29;45207;-84
2022/07/12 03:13:01;;;;;;;;;6.33;6.00;;;;;23.47;55.76;101398.00;4909076;28;44980;-84
2022/07/12 03:15:28;;;;;;;;;5.00;5.00;;;;;23.45;55.79;101406.19;4909712;28;47104;-85
2022/07/12 03:17:54;;;;;;;;;6.00;6.00;;;;;23.40;55.80;101404.53;4907292;29;45327;-85
2022/07/12 03:20:20;;;;;;;;;6.00;6.00;;;;;23.39;55.81;101403.66;4892861;29;45395;-84
2022/07/12 03:22:50;;;;;;;;;6.67;5.00;;;;;23.29;56.16;101389.47;4893949;29;45361;-85
2022/07/12 03:25:16;;;;;;;;;5.00;5.00;;;;;23.26;56.26;101381.38;4893880;29;46793;-84
2022/07/12 03:27:42;;;;;;;;;6.33;6.33;;;;;23.35;56.36;101402.84;4894381;29;45437;-85
2022/07/12 03:30:08;;;;;;;;;7.00;7.00;;;;;23.33;56.49;101404.72;4893242;29;45282;-85
2022/07/12 03:32:34;;;;;;;;;6.67;5.67;;;;;23.35;56.39;101411.00;4893281;29;45377;-84
2022/07/12 03:35:00;;;;;;;;;5.33;5.33;;;;;23.06;56.30;101357.53;4892925;28;45318;-85
2022/07/12 03:37:26;;;;;;;;;7.00;6.00;;;;;23.23;56.39;101388.72;4892500;29;45439;-85
2022/07/12 03:39:53;;;;;;;;;5.00;5.00;;;;;23.20;56.43;101389.72;4892460;29;45458;-85
2022/07/12 03:42:19;;;;;;;;;8.00;7.00;;;;;23.18;56.87;101397.00;4892006;29;45452;-85
2022/07/12 03:44:44;;;;;;;;;5.33;5.33;;;;;23.14;56.61;101401.63;4893087;29;45512;-85
2022/07/12 03:47:10;;;;;;;;;5.67;5.67;;;;;23.06;57.15;101394.63;4890286;29;45437;-84
2022/07/12 03:49:35;;;;;;;;;4.67;4.67;;;;;23.17;56.91;101425.09;4890900;29;44867;-84
2022/07/12 03:52:02;;;;;;;;;6.33;6.33;;;;;23.14;57.47;101427.88;4893305;29;45425;-85
2022/07/12 03:54:28;;;;;;;;;6.33;6.33;;;;;22.94;56.90;101398.53;4894654;29;45447;-84
2022/07/12 03:59:37;;;;;;;;;5.00;5.00;;;;;23.01;56.75;101424.56;4895080;29;44776;-84
2022/07/12 04:02:03;;;;;;;;;5.67;5.67;;;;;23.11;56.96;101433.41;4893788;29;45276;-84
2022/07/12 04:04:28;;;;;;;;;6.33;6.33;;;;;23.08;57.52;101439.78;4892783;29;45339;-84
2022/07/12 04:06:54;;;;;;;;;5.67;5.67;;;;;23.10;57.69;101450.59;4907492;29;45426;-85
2022/07/12 04:09:20;;;;;;;;;6.00;6.00;;;;;22.90;57.33;101413.09;4892412;29;44879;-85
2022/07/12 04:11:47;;;;;;;;;6.00;5.67;;;;;23.11;57.58;101445.13;4893439;29;44876;-85
2022/07/12 04:14:12;;;;;;;;;5.67;5.67;;;;;23.08;57.48;101444.31;4892383;29;48354;-85
2022/07/12 04:16:40;;;;;;;;;5.00;5.00;;;;;22.76;58.13;101389.97;4893956;29;45461;-84
2022/07/12 04:19:08;;;;;;;;;7.00;7.00;;;;;23.03;57.69;101435.44;4893475;29;45514;-84
2022/07/12 04:21:35;;;;;;;;;7.67;7.33;;;;;22.84;58.05;101413.28;4892799;29;44975;-84
2022/07/12 04:24:04;;;;;;;;;6.67;6.67;;;;;22.72;58.89;101400.91;4892768;29;45373;-84
2022/07/12 04:26:33;;;;;;;;;8.33;7.00;;;;;22.96;58.65;101443.66;4891380;29;44907;-86
2022/07/12 04:28:59;;;;;;;;;8.33;8.33;;;;;22.82;58.70;101425.97;4892885;29;45486;-85
2022/07/12 04:31:27;;;;;;;;;8.33;8.33;;;;;22.76;58.92;101413.47;4892346;29;45423;-85
2022/07/12 04:33:52;;;;;;;;;9.67;8.00;;;;;22.86;58.91;101435.81;4892755;29;47221;-85
2022/07/12 04:36:18;;;;;;;;;8.00;8.00;;;;;22.91;59.53;101451.03;4891514;29;45593;-85
2022/07/12 04:38:43;;;;;;;;;8.33;8.00;;;;;22.90;58.93;101451.97;4892009;29;45857;-85
2022/07/12 04:41:09;;;;;;;;;7.00;7.00;;;;;22.77;59.45;101432.41;4892825;29;45385;-84
2022/07/12 04:43:40;;;;;;;;;8.00;8.00;;;;;22.80;59.11;101436.84;4893984;29;47258;-85
2022/07/12 04:46:10;;;;;;;;;11.00;11.00;;;;;22.88;59.64;101467.38;4893832;29;44795;-85
2022/07/12 04:48:40;;;;;;;;;8.00;8.00;;;;;22.68;59.52;101423.63;4894149;29;45358;-85
2022/07/12 04:51:05;;;;;;;;;9.33;9.33;;;;;22.64;59.81;101427.34;4893346;29;44789;-85
2022/07/12 04:53:33;;;;;;;;;9.33;9.00;;;;;22.75;59.99;101438.81;4892952;29;46729;-85
2022/07/12 04:56:01;;;;;;;;;10.33;9.00;;;;;22.89;59.35;101443.88;4897244;29;45494;-85
2022/07/12 04:58:30;;;;;;;;;8.00;8.00;;;;;23.10;59.21;101450.59;4897625;29;45366;-85
2022/07/12 05:00:55;;;;;;;;;11.67;11.67;;;;;23.26;59.29;101449.25;4895690;29;45513;-85
2022/07/12 05:03:20;;;;;;;;;8.67;8.67;;;;;23.40;58.57;101456.13;4896463;29;46300;-85
2022/07/12 05:05:46;;;;;;;;;9.33;9.33;;;;;23.58;57.93;101461.03;4894475;29;45170;-84
2022/07/12 05:08:11;;;;;;;;;10.00;10.00;;;;;23.71;58.35;101465.19;4896027;29;44775;-86
2022/07/12 05:10:40;;;;;;;;;9.67;9.00;;;;;23.78;57.77;101457.78;4896376;29;45408;-85
2022/07/12 05:13:06;;;;;;;;;9.33;9.33;;;;;23.83;57.04;101444.03;4897673;29;46544;-85
2022/07/12 05:15:33;;;;;;;;;9.33;9.33;;;;;24.04;56.97;101459.72;4898167;28;45471;-85
2022/07/12 05:17:58;;;;;;;;;8.00;8.00;;;;;24.06;56.69;101438.81;4896162;29;44825;-84
2022/07/12 05:20:24;;;;;;;;;8.00;8.00;;;;;24.28;56.65;101465.28;4896593;29;45318;-84
2022/07/12 05:22:49;;;;;;;;;8.67;8.67;;;;;24.41;56.20;101471.25;4897841;28;45143;-84
2022/07/12 05:25:16;;;;;;;;;10.67;9.00;;;;;24.43;55.86;101467.53;4896881;28;45829;-85
2022/07/12 05:27:42;;;;;;;;;7.33;7.33;;;;;24.59;55.39;101477.97;4864439;29;45336;-85
2022/07/12 05:30:07;;;;;;;;;9.00;6.33;;;;;24.67;55.49;101475.88;4880481;29;44972;-85
2022/07/12 05:32:51;;;;;;;;;10.33;9.00;;;;;24.73;55.25;101481.13;4878500;29;45260;-85
2022/07/12 05:35:19;;;;;;;;;10.33;10.33;;;;;24.49;54.92;101448.31;4896060;29;45332;-85
2022/07/12 05:37:44;;;;;;;;;9.33;9.33;;;;;24.69;54.73;101491.19;4879862;29;45505;-85
2022/07/12 05:40:10;;;;;;;;;11.33;11.33;;;;;24.61;55.07;101487.84;4879241;29;45428;-86
2022/07/12 05:42:36;;;;;;;;;10.00;10.00;;;;;24.57;54.94;101497.03;4879896;29;47105;-84
2022/07/12 05:45:02;;;;;;;;;8.67;8.67;;;;;24.57;55.48;101497.03;4898069;28;45514;-84
2022/07/12 05:47:28;;;;;;;;;10.00;10.00;;;;;24.60;55.00;101490.59;4880130;29;44887;-85
2022/07/12 05:49:53;;;;;;;;;10.67;10.00;;;;;24.68;55.25;101496.69;4897205;29;45360;-85
2022/07/12 05:55:04;;;;;;;;;9.67;9.67;;;;;25.00;54.49;101500.16;4895114;29;45233;-86
2022/07/12 05:57:30;;;;;;;;;11.00;11.00;;;;;25.10;53.98;101502.50;4878518;29;44830;-85
2022/07/12 05:59:56;;;;;;;;;11.67;9.00;;;;;25.25;53.55;101505.69;4893880;29;45078;-85
2022/07/12 06:02:24;;;;;;;;;11.00;10.00;;;;;25.42;53.15;101503.25;4877728;29;47323;-90
2022/07/12 06:04:50;;;;;;;;;11.00;11.00;;;;;25.50;52.55;101503.88;4876791;29;45500;-89
2022/07/12 06:07:37;;;;;;;;;11.00;11.00;;;;;25.67;52.25;101511.44;4877860;29;45445;-90
2022/07/12 06:10:42;;;;;;;;;10.00;9.00;;;;;25.78;51.95;101516.50;4894742;29;44873;-91
2022/07/12 06:13:09;;;;;;;;;13.00;11.33;;;;;25.73;51.61;101496.69;4895232;29;45469;-91
2022/07/12 06:15:38;;;;;;;;;11.00;10.33;;;;;25.84;51.39;101493.56;4910390;28;45303;-91
2022/07/12 06:18:11;;;;;;;;;9.00;9.00;;;;;26.03;51.13;101500.13;4898326;29;44789;-91
2022/07/12 06:21:09;;;;;;;;;11.33;10.67;;;;;26.30;50.80;101513.66;4898359;29;45371;-92
2022/07/12 06:23:44;;;;;;;;;9.00;8.67;;;;;26.33;50.34;101499.88;4896729;29;45465;-87
2022/07/12 06:29:04;;;;;;;;;10.00;10.00;;;;;26.18;49.81;101459.56;4946000;23;46265;-89
2022/07/12 06:31:46;;;;;;;;;9.67;9.67;;;;;26.35;49.67;101479.75;4895334;29;45427;-87
2022/07/12 06:34:11;;;;;;;;;7.33;7.33;;;;;26.43;49.59;101476.72;4897189;29;46877;-88
2022/07/12 06:36:38;;;;;;;;;11.00;10.00;;;;;26.65;49.38;101498.59;4895407;29;45458;-88
2022/07/12 06:39:05;;;;;;;;;11.00;9.67;;;;;26.70;49.18;101509.31;4897319;28;45431;-88
2022/07/12 06:41:31;;;;;;;;;10.67;10.00;;;;;26.75;49.17;101515.50;4895739;29;45340;-87
2022/07/12 06:44:03;;;;;;;;;10.00;9.33;;;;;26.59;49.13;101478.88;4895019;29;48129;-88
2022/07/12 06:46:28;;;;;;;;;9.00;9.00;;;;;26.63;48.56;101477.81;4895625;29;45834;-89
2022/07/12 06:48:55;;;;;;;;;10.67;10.67;;;;;26.55;48.38;101469.91;4896155;29;45445;-86
2022/07/12 06:51:21;;;;;;;;;14.00;14.00;;;;;26.77;47.94;101499.94;4899170;29;45473;-86
2022/07/12 06:53:46;;;;;;;;;9.00;9.00;;;;;26.59;47.84;101484.34;4911481;29;46756;-87
2022/07/12 06:56:12;;;;;;;;;8.00;8.00;;;;;26.83;47.79;101504.25;4894065;29;45450;-88
2022/07/12 06:58:38;;;;;;;;;8.33;8.33;;;;;27.06;47.62;101520.53;4895020;29;45417;-88
2022/07/12 07:10:52;;;;;;;;;10.00;10.00;;;;;27.08;46.89;101531.41;5122527;23;44964;-89
2022/07/12 07:13:20;;;;;;;;;9.33;8.67;;;;;26.94;46.57;101494.69;4913120;29;45506;-88
2022/07/12 07:15:49;;;;;;;;;10.67;9.33;;;;;27.02;46.80;101490.72;4914838;28;45548;-89
2022/07/12 07:18:14;;;;;;;;;10.67;10.67;;;;;27.35;46.65;101523.91;4897544;29;45439;-86
2022/07/12 07:21:44;;;;;;;;;;;;;;;;;;;;;
2022/07/12 07:24:10;;;;;;;;;10.33;9.67;;;;;27.55;45.23;101501.16;4907672;28;66371;-84
2022/07/12 07:34:36;;;;;;;;;;;;;;;;;;;;;
2022/07/12 07:37:13;;;;;;;;;;;;;;;;;;;;;
2022/07/12 07:39:45;;;;;;;;;14.00;11.33;;;;;27.92;44.09;101494.06;4786430;29;75305;-86
2022/07/12 07:42:29;;;;;;;;;11.00;11.00;;;;;28.06;45.03;101521.63;4768207;29;44821;-85
2022/07/12 07:44:56;;;;;;;;;11.00;10.00;;;;;28.03;44.46;101524.50;4768089;29;44902;-86
2022/07/12 07:47:26;;;;;;;;;9.33;9.33;;;;;27.98;44.79;101501.97;4773349;29;45351;-86
2022/07/12 07:49:57;;;;;;;;;11.33;10.00;;;;;28.09;44.26;101517.84;4786258;29;46272;-85
2022/07/12 07:52:24;;;;;;;;;11.33;10.33;;;;;27.79;44.62;101487.34;4819454;29;45397;-86
2022/07/12 07:55:01;;;;;;;;;12.33;11.33;;;;;27.67;44.10;101496.97;4801423;29;45337;-87
2022/07/12 07:57:30;;;;;;;;;8.33;8.33;;;;;27.79;44.74;101512.81;4787579;29;45499;-85
2022/07/12 08:02:42;;;;;;;;;9.33;9.33;;;;;28.11;43.08;101525.03;5004920;23;45722;-87
2022/07/12 08:05:31;;;;;;;;;14.33;12.00;;;;;28.09;43.37;101510.53;4916185;28;45532;-87
2022/07/12 08:07:58;;;;;;;;;10.00;10.00;;;;;28.33;43.88;101554.09;4893970;29;45381;-87
2022/07/12 08:10:37;;;;;;;;;;;;;;;;;;;;;
2022/07/12 08:13:24;;;;;;;;;12.00;12.00;;;;;28.41;43.74;101546.41;4893660;28;72865;-87
2022/07/12 08:15:51;;;;;;;;;11.67;11.67;;;;;28.39;43.24;101548.34;4906634;28;45296;-87
2022/07/12 08:18:19;;;;;;;;;12.00;11.00;;;;;28.22;43.20;101508.13;4913880;28;44841;-86
2022/07/12 08:20:45;;;;;;;;;14.33;14.33;;;;;28.45;43.01;101531.63;4912212;28;45284;-87
2022/07/12 08:24:06;;;;;;;;;9.00;9.00;;;;;28.65;42.18;101557.19;4913986;28;45423;-86
2022/07/12 08:26:35;;;;;;;;;12.33;10.67;;;;;28.70;41.89;101542.31;4904546;28;44859;-88
2022/07/12 08:31:55;;;;;;;;;10.67;10.67;;;;;28.54;42.22;101508.41;4921522;23;45508;-87
2022/07/12 08:37:22;;;;;;;;;0.33;0.33;;;;;28.75;41.21;101514.69;4904886;28;45361;-88
2022/07/12 08:40:00;;;;;;;;;9.00;9.00;;;;;28.72;41.72;101510.28;4921615;29;44823;-86
2022/07/12 08:50:16;;;;;;;;;7.33;7.33;;;;;28.96;39.93;101514.59;4822954;29;45489;-88
2022/07/12 09:00:13;;;;;;;;;8.00;5.00;;;;;29.22;39.37;101555.25;4771287;29;44852;-85
2022/07/12 09:06:23;;;;;;;;;4.67;4.00;;;;;29.12;39.04;101543.00;5275837;23;46033;-84
2022/07/12 09:09:38;;;;;;;;;5.00;4.33;;;;;29.08;38.79;101546.81;4945315;23;45417;-87
2022/07/12 09:23:06;;;;;;;;;9.00;9.00;;;;;29.05;37.10;101552.47;4999403;23;45245;-85
2022/07/12 09:28:11;;;;;;;;;7.00;6.00;;;;;29.05;37.91;101555.22;4970313;23;47383;-86
2022/07/12 09:40:24;;;;;;;;;5.67;5.67;;;;;29.12;35.26;101526.56;4895800;28;45479;-87
2022/07/12 09:46:25;;;;;;;;;7.00;7.00;;;;;29.26;35.37;101540.41;4841463;29;44859;-85
2022/07/12 09:49:22;;;;;;;;;5.00;4.00;;;;;29.15;35.56;101518.19;4838491;29;45322;-86
2022/07/12 09:51:49;;;;;;;;;6.00;6.00;;;;;29.19;34.17;101547.19;4846432;29;45345;-85
2022/07/12 09:57:51;;;;;;;;;5.33;5.33;;;;;29.17;35.05;101524.47;4830950;29;45583;-85
2022/07/12 10:00:30;;;;;;;;;6.00;6.00;;;;;29.53;35.42;101559.13;4839929;29;45433;-86
2022/07/12 10:03:00;;;;;;;;;5.00;5.00;;;;;29.54;34.36;101544.47;4826524;29;45471;-86
2022/07/12 10:05:57;;;;;;;;;11.00;9.67;;;;;29.62;33.49;101552.28;4805376;29;45546;-85
2022/07/12 10:08:22;;;;;;;;;6.00;6.00;;;;;29.66;34.29;101556.66;4790530;29;44763;-85
2022/07/12 10:11:14;;;;;;;;;5.00;5.00;;;;;29.60;33.83;101549.63;4820299;29;45436;-86
2022/07/12 10:33:00;;;;;;;;;11.00;8.00;;;;;29.54;33.43;101522.53;5080805;23;47261;-86
2022/07/12 10:35:39;;;;;;;;;6.00;6.00;;;;;29.45;34.36;101502.00;4857051;29;45548;-86
2022/07/12 10:38:15;;;;;;;;;6.67;6.00;;;;;29.77;33.64;101558.84;4844404;29;46147;-85
2022/07/12 10:40:50;;;;;;;;;9.67;8.33;;;;;29.71;34.04;101555.47;4844043;29;45263;-84
2022/07/12 10:44:05;;;;;;;;;9.33;8.33;;;;;29.76;34.00;101557.06;4855373;29;45444;-84
2022/07/12 10:56:14;;;;;;;;;10.00;8.00;;;;;30.31;33.50;101554.06;4749621;29;46095;-87
2022/07/12 11:05:21;;;;;;;;;6.00;6.00;;;;;30.56;31.81;101542.59;4878423;29;45370;-87
2022/07/12 11:08:10;;;;;;;;;;;;;;;;;;;;;
2022/07/12 11:11:22;;;;;;;;;5.33;5.33;;;;;30.37;30.66;101501.56;4876773;29;66018;-86
2022/07/12 11:18:25;;;;;;;;;;;;;;;;;;;;;
2022/07/12 11:21:04;;;;;;;;;2.00;2.00;;;;;30.63;29.85;101530.28;4718282;30;68067;-86
2022/07/12 11:30:13;;;;;;;;;4.33;4.33;;;;;30.84;29.29;101530.88;4714795;30;44977;-84
2022/07/12 11:32:47;;;;;;;;;6.00;5.67;;;;;30.71;29.22;101500.50;4743966;29;45444;-86
2022/07/12 11:35:25;;;;;;;;;7.33;6.00;;;;;30.58;28.14;101487.59;4747221;29;45601;-86
2022/07/12 11:37:56;;;;;;;;;6.33;6.33;;;;;30.85;28.78;101535.41;4766529;29;45182;-86
2022/07/12 11:40:30;;;;;;;;;3.67;3.67;;;;;30.89;28.59;101531.53;4768053;29;45243;-85
2022/07/12 11:43:05;;;;;;;;;5.00;5.00;;;;;30.69;28.49;101490.59;4792617;29;45415;-85
2022/07/12 11:45:41;;;;;;;;;9.33;8.67;;;;;30.84;28.45;101528.13;4834403;29;45416;-86
2022/07/12 11:48:22;;;;;;;;;12.67;12.00;;;;;30.78;29.31;101509.25;4843827;29;45418;-85
2022/07/12 11:50:54;;;;;;;;;9.00;9.00;;;;;30.66;29.46;101477.03;4805656;29;45550;-86
2022/07/12 11:53:32;;;;;;;;;11.00;9.33;;;;;30.93;29.54;101510.28;4850616;29;45500;-84
2022/07/12 11:55:59;;;;;;;;;7.67;7.67;;;;;30.88;28.82;101502.31;4883510;29;45365;-86
2022/07/12 12:01:21;;;;;;;;;5.67;5.67;;;;;30.65;27.98;101461.56;4904230;29;44910;-85
2022/07/12 12:07:08;;;;;;;;;5.00;5.00;;;;;30.86;27.73;101508.81;4915625;28;45327;-84
2022/07/12 12:10:09;;;;;;;;;6.00;6.00;;;;;30.83;26.90;101498.91;4898957;29;45697;-85
2022/07/12 12:12:54;;;;;;;;;6.33;6.00;;;;;30.74;26.90;101488.44;4899114;29;45501;-85
2022/07/12 12:16:17;;;;;;;;;5.00;5.00;;;;;30.79;25.51;101494.56;4899690;28;45397;-86
2022/07/12 12:19:17;;;;;;;;;2.33;2.33;;;;;30.83;25.32;101493.41;4912164;28;45319;-85
2022/07/12 12:34:03;;;;;;;;;4.00;4.00;;;;;31.10;25.23;101479.91;4903732;29;45897;-85
2022/07/12 12:51:23;;;;;;;;;;;;;;;;;;;;;
2022/07/12 12:54:08;;;;;;;;;;;;;;;;;;;;;
2022/07/12 12:57:28;;;;;;;;;;;;;;;;;;;;;
2022/07/12 12:59:57;;;;;;;;;2.00;2.00;;;;;31.26;24.54;101455.13;4856317;29;71741;-84
2022/07/12 13:02:24;;;;;;;;;5.33;4.00;;;;;31.07;24.45;101424.28;4857182;29;45415;-85
2022/07/12 13:08:23;;;;;;;;;3.33;3.00;;;;;31.35;23.46;101461.94;5346031;23;45545;-85
2022/07/12 13:11:22;;;;;;;;;5.00;5.00;;;;;31.14;22.25;101425.66;4916046;28;44801;-84
2022/07/12 13:14:02;;;;;;;;;2.33;2.33;;;;;31.17;22.50;101430.97;4935131;28;45820;-84
2022/07/12 13:19:59;;;;;;;;;4.00;3.33;;;;;31.33;23.21;101465.72;4896571;29;45365;-84
2022/07/12 13:23:00;;;;;;;;;4.67;4.67;;;;;31.11;22.51;101436.84;4880679;29;46013;-85
2022/07/12 13:25:32;;;;;;;;;5.00;5.00;;;;;31.07;23.13;101422.41;4844127;29;44881;-85
2022/07/12 13:41:34;;;;;;;;;4.33;4.33;;;;;31.23;23.17;101405.84;4859298;29;45446;-85
2022/07/12 13:44:03;;;;;;;;;3.00;3.00;;;;;31.36;22.27;101407.84;4883877;29;45669;-84
2022/07/12 13:46:41;;;;;;;;;3.67;3.67;;;;;31.36;22.60;101397.72;4880788;29;45416;-83
2022/07/12 13:52:21;;;;;;;;;5.67;5.00;;;;;32.92;21.56;101429.72;4938112;28;45435;-85
2022/07/12 13:55:03;;;;;;;;;4.33;4.33;;;;;34.87;20.51;101425.66;4936285;28;45441;-84
2022/07/12 13:57:37;;;;;;;;;7.33;7.33;;;;;36.64;18.45;101391.91;4937345;28;44774;-85
2022/07/12 14:00:44;;;;;;;;;4.33;4.33;;;;;38.52;18.40;101414.91;4948023;28;45433;-85
2022/07/12 14:12:09;;;;;;;;;;;;;;;;;;;;;
2022/07/12 14:18:18;;;;;;;;;5.00;3.67;;;;;44.57;14.17;101396.88;4936499;28;45383;-85
2022/07/12 14:20:55;;;;;;;;;3.00;3.00;;;;;45.18;13.27;101403.38;4844562;29;44982;-85
2022/07/12 14:23:21;;;;;;;;;30.67;28.67;;;;;45.44;13.62;101391.72;4844888;29;45308;-84
2022/07/12 14:25:53;;;;;;;;;5.00;5.00;;;;;46.68;12.94;101420.00;4842402;29;45495;-84
2022/07/12 14:28:21;;;;;;;;;5.00;4.67;;;;;47.10;10.79;101404.16;4842925;29;45523;-85
2022/07/12 14:31:03;;;;;;;;;3.67;3.67;;;;;46.79;12.75;101403.66;4842584;29;45460;-85
2022/07/12 14:33:58;;;;;;;;;4.33;4.33;;;;;47.41;12.42;101391.66;4841791;29;45464;-85
2022/07/12 14:36:35;;;;;;;;;6.67;4.67;;;;;48.78;11.85;101406.78;4826531;29;45444;-85
2022/07/12 14:39:37;;;;;;;;;3.00;3.00;;;;;49.70;11.08;101392.84;4856495;29;46782;-84
2022/07/12 14:45:16;;;;;;;;;5.00;5.00;;;;;49.89;8.03;101387.38;4841514;29;45299;-85
2022/07/12 14:47:42;;;;;;;;;4.00;4.00;;;;;49.81;9.07;101403.47;4841029;29;44919;-84
2022/07/12 14:50:55;;;;;;;;;;;;;;;;;;;;;
2022/07/12 14:53:24;;;;;;;;;6.00;6.00;;;;;50.00;10.61;101381.88;4840488;29;72401;-85
2022/07/12 14:59:24;;;;;;;;;6.00;5.33;;;;;51.05;9.64;101379.69;1069143;26;45361;-86
2022/07/12 15:05:15;;;;;;;;;;;;;;;;;;;;;
2022/07/12 15:07:56;;;;;;;;;6.00;4.67;;;;;50.58;7.38;101394.22;4973778;23;67850;-84
2022/07/12 15:11:20;;;;;;;;;6.00;6.00;;;;;49.91;7.27;101383.22;4897272;29;45654;-86
2022/07/12 15:13:49;;;;;;;;;3.00;3.00;;;;;49.70;7.98;101358.06;4767042;29;47005;-86
2022/07/12 15:16:28;;;;;;;;;4.00;4.00;;;;;49.96;8.54;101362.75;4767812;29;45402;-85
2022/07/12 15:18:54;;;;;;;;;5.00;5.00;;;;;50.72;9.33;101361.84;4766548;29;45594;-87
2022/07/12 15:21:20;;;;;;;;;5.00;5.00;;;;;51.73;8.69;101356.09;4767446;29;45628;-86
2022/07/12 15:23:52;;;;;;;;;4.00;4.00;;;;;52.58;8.98;101347.53;4780958;29;45195;-85
2022/07/12 15:26:39;;;;;;;;;4.67;4.00;;;;;53.74;8.33;101371.66;4768183;29;45730;-85
2022/07/12 15:36:23;;;;;;;;;;;;;;;;;;;;;
2022/07/12 15:39:44;;;;;;;;;4.00;4.00;;;;;51.26;8.19;101339.63;4781608;29;71954;-86